Terminal Aerodrome Forecast
Issued by NWS Shreveport, LA

Home | Current Version | Previous Version | Text Only | Print | Product List | Glossary On
Versions: 1 2 3 4 5 6 7 8 9 10 11 12 13 14 15
212
FTUS44 KSHV 270540
TAFMLU
TAF
KMLU 270540Z 2706/2806 18007KT P6SM BKN035
     FM270700 19010KT P6SM OVC020
      TEMPO 2711/2715 BKN007
     FM271500 19012G16KT P6SM BKN015
     FM271800 21010G17KT P6SM OVC025
     FM272100 20010KT P6SM BKN040=

USA.gov is the U.S. government's official web portal to all federal, state and local government web resources and services.